Time;durP1;ratioP1;P1;durP2;ratioP2;P2;SDS_P1;SDS_P2;PMS_P1;PMS_P2;Temp;Humidity;BMP_temperature;BMP_pressure;BME280_temperature;BME280_humidity;BME280_pressure;Samples;Min_cycle;Max_cycle;Signal;HPM_P1;HPM_P2
2022/09/12 00:00:32;;;;;;;6.00;2.75;;;;;;;17.84;82.00;99832.19;4983326;28;20034;-76
2022/09/12 00:02:58;;;;;;;9.77;3.33;;;;;;;17.93;83.17;99864.56;4985102;28;20486;-79
2022/09/12 00:05:25;;;;;;;4.18;2.22;;;;;;;18.58;83.62;99981.50;5006029;28;20113;-78
2022/09/12 00:07:51;;;;;;;6.53;3.22;;;;;;;18.53;83.74;99989.66;5007641;28;20053;-77
2022/09/12 00:10:17;;;;;;;9.82;3.38;;;;;;;18.43;83.36;99955.56;5013197;28;20045;-76
2022/09/12 00:12:43;;;;;;;7.72;2.78;;;;;;;18.57;81.78;99977.13;5002934;28;20044;-78
2022/09/12 00:15:09;;;;;;;6.13;3.67;;;;;;;18.22;84.81;99942.19;4980822;28;20410;-76
2022/09/12 00:17:36;;;;;;;6.82;2.40;;;;;;;17.82;86.12;99880.03;4980125;28;20580;-74
2022/09/12 00:20:05;;;;;;;6.25;3.85;;;;;;;18.20;86.30;99965.28;4987443;28;20128;-77
2022/09/12 00:22:32;;;;;;;4.70;2.70;;;;;;;18.03;87.21;99950.00;4989631;28;20061;-78
2022/09/12 00:24:57;;;;;;;7.70;3.40;;;;;;;18.01;87.98;99948.34;4985135;28;20137;-77
2022/09/12 00:27:23;;;;;;;6.75;3.83;;;;;;;18.24;87.27;99982.84;5002694;28;20107;-77
2022/09/12 00:29:48;;;;;;;3.78;2.05;;;;;;;17.30;86.95;99836.84;5009187;28;20037;-76
2022/09/12 00:32:14;;;;;;;19.15;2.38;;;;;;;18.10;87.93;99970.09;5004606;28;20560;-74
2022/09/12 00:34:39;;;;;;;6.15;2.67;;;;;;;17.42;88.07;99859.38;5007745;28;20747;-74
2022/09/12 00:37:04;;;;;;;6.95;3.00;;;;;;;17.86;86.81;99931.19;5004903;28;20299;-75
2022/09/12 00:39:30;;;;;;;5.78;2.45;;;;;;;17.50;85.04;99871.44;5005063;28;20033;-75
2022/09/12 00:41:56;;;;;;;3.90;2.38;;;;;;;18.21;82.54;99968.81;5001850;28;20141;-77
2022/09/12 00:44:24;;;;;;;7.22;2.95;;;;;;;18.31;80.98;99983.47;5001739;28;20085;-78
2022/09/12 00:46:56;;;;;;;5.97;2.47;;;;;;;18.08;80.35;99961.31;5005479;28;20041;-78
2022/09/12 00:49:31;;;;;;;6.65;3.28;;;;;;;17.41;79.84;99817.88;5001685;28;20121;-78
2022/09/12 00:52:04;;;;;;;5.88;2.00;;;;;;;18.17;80.47;99957.44;5002884;28;20041;-76
2022/09/12 00:54:35;;;;;;;4.88;2.60;;;;;;;18.20;79.39;99930.78;5005657;28;20038;-74
2022/09/12 00:57:03;;;;;;;7.57;2.60;;;;;;;17.84;80.26;99882.59;5005542;28;20598;-75
2022/09/12 00:59:35;;;;;;;4.80;2.25;;;;;;;18.29;80.15;99972.91;5006115;28;20534;-76
2022/09/12 01:02:02;;;;;;;4.90;2.58;;;;;;;17.48;81.30;99820.25;5005129;28;20050;-79
2022/09/12 01:04:29;;;;;;;5.68;3.13;;;;;;;17.29;81.78;99828.03;5008237;28;20058;-76
2022/09/12 01:06:57;;;;;;;8.23;2.45;;;;;;;18.09;80.72;99960.38;4998483;28;20117;-75
2022/09/12 01:09:24;;;;;;;6.18;2.33;;;;;;;18.09;79.50;99925.88;4998461;28;20791;-75
2022/09/12 01:11:51;;;;;;;7.15;2.13;;;;;;;17.63;80.04;99855.94;5000970;28;20038;-75
2022/09/12 01:14:18;;;;;;;3.50;2.20;;;;;;;17.92;84.04;99934.47;4987779;28;20469;-74
2022/09/12 01:16:46;;;;;;;5.20;2.05;;;;;;;17.99;84.62;99958.16;4998852;28;20841;-76
2022/09/12 01:19:20;;;;;;;23.83;3.70;;;;;;;17.94;84.96;99963.63;5004626;28;20045;-76
2022/09/12 01:22:13;;;;;;;4.72;2.45;;;;;;;17.82;85.78;99964.09;5007431;28;20034;-75
2022/09/12 01:24:53;;;;;;;4.57;2.33;;;;;;;16.94;86.15;99829.31;5002409;28;20448;-76
2022/09/12 01:27:27;;;;;;;5.93;2.65;;;;;;;17.72;86.60;99966.16;5000964;28;20501;-76
2022/09/12 01:30:15;;;;;;;12.27;2.80;;;;;;;17.64;86.17;99957.63;4984001;28;20623;-76
2022/09/12 01:33:21;;;;;;;7.25;3.55;;;;;;;17.72;84.68;99972.38;4980181;28;20038;-78
2022/09/12 01:35:55;;;;;;;6.50;2.03;;;;;;;17.59;84.65;99957.81;4907133;29;20062;-80
2022/09/12 01:38:49;;;;;;;4.25;1.88;;;;;;;17.80;79.81;99942.88;4967894;28;20145;-79
2022/09/12 01:41:33;;;;;;;3.33;1.42;;;;;;;17.79;77.21;99953.53;4982691;28;20101;-78
2022/09/12 01:44:15;;;;;;;3.67;1.35;;;;;;;17.87;77.02;99957.69;4984538;28;20054;-78
2022/09/12 01:46:47;;;;;;;4.57;1.73;;;;;;;17.13;76.55;99823.34;4982494;28;20042;-79
2022/09/12 01:49:24;;;;;;;5.38;1.73;;;;;;;17.94;78.43;99960.97;4968533;28;20541;-78
2022/09/12 01:51:52;;;;;;;5.93;3.25;;;;;;;17.88;80.07;99969.16;4983277;28;20133;-77
2022/09/12 01:54:43;;;;;;;7.78;3.70;;;;;;;17.03;82.41;99841.38;4959234;28;20092;-77
2022/09/12 01:57:19;;;;;;;7.32;3.47;;;;;;;17.36;83.97;99936.53;4983537;28;20042;-76
2022/09/12 01:59:50;;;;;;;5.30;2.80;;;;;;;17.35;84.41;99950.72;4977814;28;20054;-77
2022/09/12 02:02:22;;;;;;;6.68;2.38;;;;;;;16.65;83.92;99825.00;4988728;28;20046;-75
2022/09/12 02:05:03;;;;;;;5.18;3.05;;;;;;;17.38;84.25;99953.28;4987421;28;20058;-76
2022/09/12 02:07:42;;;;;;;9.02;2.78;;;;;;;17.46;83.98;99975.94;4986053;28;20581;-80
2022/09/12 02:10:22;;;;;;;4.28;1.90;;;;;;;17.23;84.04;99925.50;4982327;28;20053;-78
2022/09/12 02:13:01;;;;;;;5.05;2.60;;;;;;;16.63;83.15;99814.47;4985152;28;20042;-78
2022/09/12 02:15:33;;;;;;;9.02;2.58;;;;;;;17.22;84.59;99952.94;4980596;28;20030;-78
2022/09/12 02:18:00;;;;;;;6.43;1.95;;;;;;;17.22;83.55;99942.34;4984029;28;20058;-78
2022/09/12 02:20:30;;;;;;;4.03;1.45;;;;;;;16.46;83.03;99807.09;4988147;28;20050;-77
2022/09/12 02:22:57;;;;;;;3.67;1.60;;;;;;;16.60;83.71;99837.53;4982580;28;20041;-79
2022/09/12 02:25:24;;;;;;;4.85;2.03;;;;;;;16.58;83.93;99842.88;4985808;28;20442;-79
2022/09/12 02:27:58;;;;;;;4.75;1.92;;;;;;;17.05;82.48;99916.41;4985714;28;20053;-79
2022/09/12 02:30:24;;;;;;;4.05;1.83;;;;;;;16.98;82.17;99907.81;5005631;28;20140;-78
2022/09/12 02:33:11;;;;;;;4.60;1.65;;;;;;;17.27;83.05;99959.81;5007660;28;20064;-78
2022/09/12 02:35:51;;;;;;;3.63;1.40;;;;;;;17.30;80.80;99957.06;4998844;28;20522;-77
2022/09/12 02:38:21;;;;;;;2.42;1.38;;;;;;;17.07;82.67;99957.00;5001376;28;20050;-77
2022/09/12 02:40:46;;;;;;;3.70;1.63;;;;;;;16.90;82.60;99928.38;5003214;28;20074;-77
2022/09/12 02:43:12;;;;;;;4.03;1.92;;;;;;;17.06;82.70;99973.78;5000502;28;20859;-76
2022/09/12 02:45:37;;;;;;;2.63;1.33;;;;;;;17.06;81.27;99956.09;5001967;28;20033;-80
2022/09/12 02:48:14;;;;;;;6.18;2.08;;;;;;;16.98;82.47;99944.91;5005088;28;20555;-78
2022/09/12 02:50:40;;;;;;;4.18;1.65;;;;;;;16.27;81.46;99818.34;5000179;28;20066;-75
2022/09/12 02:53:08;;;;;;;8.77;1.40;;;;;;;17.02;85.21;99949.19;5010390;28;20058;-78
2022/09/12 02:55:36;;;;;;;6.18;3.13;;;;;;;16.90;85.50;99941.63;5001290;28;20232;-77
2022/09/12 02:58:04;;;;;;;6.70;2.45;;;;;;;16.77;84.87;99937.66;4999001;28;20608;-78
2022/09/12 03:00:43;;;;;;;9.40;1.88;;;;;;;16.93;84.86;99975.13;5005762;28;20038;-76
2022/09/12 03:03:51;;;;;;;5.15;1.70;;;;;;;17.07;82.67;99978.19;4987944;28;20053;-76
2022/09/12 03:06:34;;;;;;;3.45;1.58;;;;;;;17.17;81.25;99982.25;5003402;28;20046;-78
2022/09/12 03:09:19;;;;;;;;;;;;;;;17.19;80.98;99983.06;5006304;28;20061;-78
2022/09/12 03:12:01;;;;;;;8.48;2.38;;;;;;;16.43;80.13;99843.38;5004441;28;19925;-78
2022/09/12 03:14:45;;;;;;;14.70;2.83;;;;;;;17.21;81.46;99991.00;5001826;28;20571;-78
2022/09/12 03:17:23;;;;;;;5.78;2.15;;;;;;;16.95;80.85;100003.34;5007838;28;20042;-77
2022/09/12 03:20:10;;;;;;;6.18;1.95;;;;;;;17.00;81.48;99982.84;5001309;28;20066;-76
2022/09/12 03:22:35;;;;;;;4.63;2.38;;;;;;;17.01;81.42;99986.34;4995296;28;20069;-76
2022/09/12 03:25:16;;;;;;;4.82;1.85;;;;;;;16.97;81.92;99974.97;5002736;28;20049;-77
2022/09/12 03:27:48;;;;;;;4.40;2.08;;;;;;;16.98;81.53;99992.63;5002340;28;20100;-78
2022/09/12 03:30:14;;;;;;;4.47;1.83;;;;;;;16.90;83.03;99991.13;4997378;28;20046;-77
2022/09/12 03:32:43;;;;;;;9.10;2.22;;;;;;;16.81;84.42;99979.03;5001790;28;20383;-77
2022/09/12 03:35:10;;;;;;;7.13;2.30;;;;;;;16.78;84.32;99987.06;5002715;28;20054;-79
2022/09/12 03:37:36;;;;;;;10.20;2.00;;;;;;;16.61;83.68;99977.00;5000441;28;20049;-77
2022/09/12 03:40:03;;;;;;;4.90;1.63;;;;;;;16.55;84.16;99954.25;5011403;28;20065;-78
2022/09/12 03:42:28;;;;;;;5.85;1.70;;;;;;;15.92;83.73;99867.97;5002096;28;20034;-78
2022/09/12 03:44:54;;;;;;;4.85;2.40;;;;;;;16.24;82.51;99922.56;5005011;28;20826;-77
2022/09/12 03:47:19;;;;;;;5.18;1.63;;;;;;;15.98;84.77;99902.19;4989123;28;20454;-76
2022/09/12 03:49:45;;;;;;;9.40;2.50;;;;;;;16.45;85.66;99987.22;5005485;28;20186;-77
2022/09/12 03:52:11;;;;;;;7.75;3.25;;;;;;;16.53;86.48;99993.16;5004297;28;20557;-76
2022/09/12 03:54:38;;;;;;;5.93;2.33;;;;;;;15.68;85.68;99845.75;5002143;28;20038;-76
2022/09/12 03:57:04;;;;;;;11.52;2.90;;;;;;;16.27;86.17;99982.47;5003184;28;20385;-76
2022/09/12 03:59:29;;;;;;;10.65;3.03;;;;;;;16.21;86.62;99997.66;5002971;28;20082;-77
2022/09/12 04:01:55;;;;;;;13.32;3.53;;;;;;;15.56;87.42;99878.72;5006159;28;20120;-79
2022/09/12 04:04:21;;;;;;;9.18;3.03;;;;;;;15.35;87.83;99867.81;4981044;28;20054;-75
2022/09/12 04:06:46;;;;;;;9.18;2.55;;;;;;;15.69;87.99;99903.91;4979864;28;20042;-76
2022/09/12 04:09:11;;;;;;;8.35;2.58;;;;;;;16.32;87.20;99996.44;4964277;28;20600;-77
2022/09/12 04:11:37;;;;;;;8.85;2.78;;;;;;;16.27;87.19;99999.22;4979619;28;20379;-76
2022/09/12 04:14:02;;;;;;;7.95;2.88;;;;;;;16.15;87.26;99994.31;4982592;28;20117;-76
2022/09/12 04:16:28;;;;;;;8.65;2.67;;;;;;;16.18;85.86;99989.81;4990276;28;20065;-75
2022/09/12 04:18:53;;;;;;;6.13;1.83;;;;;;;16.38;85.65;100020.09;5002835;28;20494;-76
2022/09/12 04:21:20;;;;;;;8.10;1.80;;;;;;;16.43;84.64;100004.94;5011525;28;20041;-74
2022/09/12 04:23:46;;;;;;;5.03;2.58;;;;;;;16.39;84.03;100005.97;5001341;28;20069;-77
2022/09/12 04:26:13;;;;;;;5.95;2.92;;;;;;;15.53;85.16;99853.22;5005488;28;20383;-76
2022/09/12 04:28:38;;;;;;;7.05;3.45;;;;;;;15.70;86.28;99880.94;5001418;28;20050;-75
2022/09/12 04:31:16;;;;;;;7.55;3.40;;;;;;;16.33;86.16;99992.91;5003813;28;20076;-76
2022/09/12 04:33:44;;;;;;;11.50;3.83;;;;;;;16.46;85.51;100003.06;5001482;28;20057;-75
2022/09/12 04:36:15;;;;;;;11.90;4.57;;;;;;;16.51;86.34;100002.94;5002290;28;20088;-75
2022/09/12 04:38:45;;;;;;;11.48;4.40;;;;;;;16.35;84.39;99977.84;4984399;28;20208;-75
2022/09/12 04:41:11;;;;;;;7.72;3.88;;;;;;;16.17;83.85;99935.09;5000941;28;20629;-76
2022/09/12 04:43:38;;;;;;;12.65;3.97;;;;;;;16.67;82.74;100016.56;5000366;28;20068;-76
2022/09/12 04:46:09;;;;;;;7.20;4.72;;;;;;;16.62;82.96;100027.31;4999808;28;20156;-76
2022/09/12 04:48:34;;;;;;;11.18;4.50;;;;;;;15.77;83.06;99871.94;4982152;28;20041;-77
2022/09/12 04:51:29;;;;;;;10.48;5.28;;;;;;;16.75;83.74;100029.56;5002654;28;20313;-76
2022/09/12 04:53:57;;;;;;;7.05;3.88;;;;;;;16.00;82.42;99910.94;4995330;28;20133;-76
2022/09/12 04:56:24;;;;;;;9.05;4.30;;;;;;;16.23;81.99;99934.06;4999725;28;20075;-75
2022/09/12 04:58:50;;;;;;;5.13;3.08;;;;;;;16.77;81.69;100028.59;4997781;28;20050;-77
2022/09/12 05:01:18;;;;;;;12.02;3.65;;;;;;;16.46;81.01;99970.44;5001686;28;20478;-76
2022/09/12 05:03:45;;;;;;;14.93;5.05;;;;;;;16.29;81.31;99917.13;5005259;28;20076;-76
2022/09/12 05:06:21;;;;;;;11.48;3.53;;;;;;;16.96;81.11;100031.56;5000435;28;20041;-76
2022/09/12 05:08:46;;;;;;;6.07;3.22;;;;;;;16.13;80.67;99877.91;5001906;28;20049;-76
2022/09/12 05:11:15;;;;;;;10.05;3.67;;;;;;;16.39;79.71;99898.25;4987740;28;20103;-76
2022/09/12 05:13:41;;;;;;;9.13;3.65;;;;;;;17.06;80.46;100016.22;4999626;28;20045;-78
2022/09/12 05:16:08;;;;;;;8.77;4.03;;;;;;;17.52;79.02;100035.88;5006051;28;20046;-78
2022/09/12 05:18:35;;;;;;;10.80;5.45;;;;;;;18.49;77.78;100032.34;5002081;28;20136;-77
2022/09/12 05:21:03;;;;;;;7.57;3.58;;;;;;;19.42;72.30;100009.09;5008631;28;20053;-75
2022/09/12 05:23:29;;;;;;;15.55;4.38;;;;;;;20.17;68.08;100040.41;4988321;28;20149;-77
2022/09/12 05:25:56;;;;;;;21.00;4.00;;;;;;;20.92;66.79;100027.16;4983999;28;20096;-77
2022/09/12 05:28:23;;;;;;;11.20;4.05;;;;;;;21.01;63.81;99997.38;4998630;28;20061;-77
2022/09/12 05:31:02;;;;;;;15.52;4.70;;;;;;;21.69;62.76;100001.00;5012918;28;20041;-76
2022/09/12 05:33:29;;;;;;;14.68;4.28;;;;;;;22.16;62.77;100038.63;4999223;28;20076;-75
2022/09/12 05:35:54;;;;;;;7.28;3.45;;;;;;;22.19;60.22;100020.59;4982086;28;20088;-77
2022/09/12 05:38:20;;;;;;;6.63;3.30;;;;;;;21.74;59.84;99888.59;4992773;28;20090;-77
2022/09/12 05:40:45;;;;;;;6.80;3.28;;;;;;;22.33;57.67;100020.72;4996711;28;20042;-74
2022/09/12 05:43:13;;;;;;;10.45;3.88;;;;;;;22.80;57.78;100024.38;5000173;28;20482;-76
2022/09/12 05:45:40;;;;;;;19.70;3.88;;;;;;;22.13;57.05;99895.34;4985560;28;20050;-76
2022/09/12 05:48:05;;;;;;;9.95;3.78;;;;;;;22.94;56.50;100020.91;4999710;28;20341;-77
2022/09/12 05:50:31;;;;;;;11.98;3.92;;;;;;;23.11;55.44;100028.00;4999776;28;20417;-78
2022/09/12 05:52:57;;;;;;;4.70;2.95;;;;;;;22.66;54.84;99926.19;4998188;28;20057;-78
2022/09/12 05:55:23;;;;;;;16.17;3.45;;;;;;;23.32;55.69;100018.72;4996928;28;20083;-78
2022/09/12 05:57:50;;;;;;;7.13;3.38;;;;;;;22.19;54.24;99832.66;4998231;28;20031;-76
2022/09/12 06:00:16;;;;;;;8.48;3.40;;;;;;;23.24;55.41;100049.56;4998463;28;20069;-76
2022/09/12 06:02:41;;;;;;;7.40;3.35;;;;;;;22.86;54.73;100004.44;4998216;28;20505;-76
2022/09/12 06:05:07;;;;;;;13.20;3.95;;;;;;;22.79;55.85;100035.19;4995360;28;20073;-76
2022/09/12 06:07:34;;;;;;;11.52;5.05;;;;;;;22.48;56.16;100055.63;5001088;28;20048;-76
2022/09/12 06:10:00;;;;;;;10.02;3.58;;;;;;;21.84;57.15;100044.72;4985188;28;20054;-77
2022/09/12 06:12:28;;;;;;;10.40;3.30;;;;;;;21.18;58.28;99949.34;5002677;28;20040;-76
2022/09/12 06:14:54;;;;;;;7.93;2.90;;;;;;;21.02;57.72;99975.06;4984411;28;20166;-78
2022/09/12 06:17:21;;;;;;;18.90;3.58;;;;;;;21.49;58.39;100055.44;4997626;28;20050;-76
2022/09/12 06:19:46;;;;;;;18.30;3.22;;;;;;;21.34;59.22;100056.19;5002229;28;20065;-77
2022/09/12 06:22:13;;;;;;;8.70;2.67;;;;;;;20.70;59.53;99958.00;4996523;28;20058;-76
2022/09/12 06:24:38;;;;;;;6.10;2.25;;;;;;;21.22;58.88;100062.13;4973783;28;20039;-76
2022/09/12 06:27:05;;;;;;;4.85;3.03;;;;;;;20.94;59.44;100055.50;4984247;28;20080;-80
2022/09/12 06:29:31;;;;;;;4.75;2.17;;;;;;;20.56;60.71;99994.22;4977354;28;20764;-77
2022/09/12 06:31:57;;;;;;;9.32;2.58;;;;;;;20.83;60.80;100045.31;5001283;28;20115;-76
2022/09/12 06:34:22;;;;;;;5.57;2.30;;;;;;;20.76;62.16;100051.91;5004028;28;20116;-77
2022/09/12 06:36:48;;;;;;;7.60;3.03;;;;;;;19.71;61.30;99930.63;5004779;28;20061;-78
2022/09/12 06:39:15;;;;;;;8.30;3.72;;;;;;;20.72;60.01;100054.78;4985881;28;20042;-78
2022/09/12 06:41:41;;;;;;;7.47;2.75;;;;;;;20.51;60.83;100032.63;4998857;28;20057;-76
2022/09/12 06:44:11;;;;;;;11.02;4.35;;;;;;;20.79;61.15;100056.22;4999449;28;20123;-77
2022/09/12 06:46:36;;;;;;;8.73;3.15;;;;;;;20.70;62.08;100056.66;5000912;28;20065;-76
2022/09/12 06:49:02;;;;;;;13.23;3.30;;;;;;;20.77;62.56;100058.13;5005536;28;20050;-77
2022/09/12 06:51:28;;;;;;;5.80;2.05;;;;;;;20.77;60.67;100056.31;5003262;28;20045;-77
2022/09/12 06:53:56;;;;;;;6.47;2.53;;;;;;;20.55;61.05;100067.06;5004483;28;20054;-77
2022/09/12 06:56:24;;;;;;;11.88;3.78;;;;;;;20.03;61.58;99950.47;5006876;28;20092;-76
2022/09/12 06:58:50;;;;;;;10.32;3.45;;;;;;;20.76;60.21;100062.56;5004342;28;20133;-78
2022/09/12 07:01:23;;;;;;;12.55;3.47;;;;;;;20.53;62.83;100028.09;4999872;28;20050;-76
2022/09/12 07:03:50;;;;;;;12.20;3.15;;;;;;;20.61;63.97;100049.97;5006483;28;20474;-78
2022/09/12 07:06:18;;;;;;;9.32;2.85;;;;;;;20.61;65.38;100060.63;5007201;28;20101;-78
2022/09/12 07:08:44;;;;;;;8.77;3.10;;;;;;;19.91;65.26;99961.69;5002312;28;20057;-81
2022/09/12 07:11:21;;;;;;;7.40;3.90;;;;;;;20.13;61.69;100020.16;4999094;28;20061;-80
2022/09/12 07:13:50;;;;;;;10.90;3.60;;;;;;;19.84;66.03;99948.75;4988816;28;20133;-76
2022/09/12 07:16:22;;;;;;;5.93;3.15;;;;;;;19.70;62.94;99923.59;5009139;28;20716;-78
2022/09/12 07:18:53;;;;;;;14.00;3.30;;;;;;;20.36;64.98;100056.41;5002145;28;20518;-78
2022/09/12 07:21:19;;;;;;;8.00;3.38;;;;;;;19.56;66.27;99923.34;5004656;28;20151;-76
2022/09/12 07:23:44;;;;;;;10.32;2.60;;;;;;;19.69;61.66;99945.84;4987369;28;20132;-79
2022/09/12 07:26:12;;;;;;;9.77;3.40;;;;;;;20.42;60.73;100045.47;5002979;28;20076;-79
2022/09/12 07:28:38;;;;;;;8.82;2.97;;;;;;;20.59;61.66;100050.03;4995119;28;20407;-77
2022/09/12 07:31:11;;;;;;;19.13;3.78;;;;;;;19.98;61.30;99917.00;4995042;28;20041;-77
2022/09/12 07:33:38;;;;;;;11.45;3.97;;;;;;;19.80;62.34;99908.06;4996994;28;20038;-78
2022/09/12 07:36:07;;;;;;;16.65;2.92;;;;;;;20.01;60.63;99944.34;4974439;28;20054;-79
2022/09/12 07:38:33;;;;;;;13.80;3.72;;;;;;;20.64;60.37;100052.50;4987693;28;20050;-78
2022/09/12 07:40:59;;;;;;;4.93;2.40;;;;;;;19.95;59.30;99918.00;4980770;28;20042;-79
2022/09/12 07:43:24;;;;;;;7.50;2.10;;;;;;;20.72;57.69;100057.44;4978383;28;20050;-79
2022/09/12 07:45:56;;;;;;;7.90;2.10;;;;;;;20.03;58.06;99922.97;4986620;28;20061;-76
2022/09/12 07:48:22;;;;;;;13.15;2.10;;;;;;;20.81;56.25;100049.00;4981768;28;20061;-78
2022/09/12 07:50:56;;;;;;;11.45;1.67;;;;;;;20.45;56.50;99968.03;4978724;28;20085;-77
2022/09/12 07:53:22;;;;;;;2.85;1.38;;;;;;;20.73;56.77;100037.88;4982400;28;20065;-76
2022/09/12 07:55:54;;;;;;;4.90;1.95;;;;;;;20.72;57.53;99999.69;4983022;28;20503;-75
2022/09/12 07:58:20;;;;;;;5.13;2.20;;;;;;;20.47;58.32;99959.13;4970760;28;20045;-74
2022/09/12 08:00:45;;;;;;;3.65;1.23;;;;;;;20.76;55.82;100035.91;5008104;28;20045;-75
2022/09/12 08:03:11;;;;;;;4.57;1.33;;;;;;;20.95;55.54;100038.53;5009089;28;20033;-73
2022/09/12 08:05:36;;;;;;;3.80;1.23;;;;;;;20.41;55.52;99904.28;5003896;28;20058;-74
2022/09/12 08:08:02;;;;;;;4.45;1.77;;;;;;;21.19;56.97;100024.91;5009450;28;20049;-83
2022/09/12 08:10:28;;;;;;;5.97;1.58;;;;;;;20.35;55.50;99901.94;4987976;28;20049;-81
2022/09/12 08:12:54;;;;;;;4.53;2.00;;;;;;;21.35;55.29;100035.69;5001348;28;20484;-82
2022/09/12 08:15:19;;;;;;;4.72;2.08;;;;;;;20.57;54.42;99918.63;5007226;28;20035;-81
2022/09/12 08:17:45;;;;;;;13.95;1.35;;;;;;;20.57;54.40;99905.28;5005177;28;20072;-81
2022/09/12 08:20:11;;;;;;;3.08;1.60;;;;;;;20.75;54.22;99910.66;5008884;28;20058;-81
2022/09/12 08:22:37;;;;;;;5.80;1.38;;;;;;;21.48;54.24;100032.34;5001418;28;20600;-81
2022/09/12 08:25:02;;;;;;;10.15;1.92;;;;;;;21.32;55.80;100023.38;5002393;28;20078;-81
2022/09/12 08:27:28;;;;;;;7.50;1.75;;;;;;;20.65;54.17;99888.94;4989342;28;20038;-81
2022/09/12 08:29:54;;;;;;;4.05;0.70;;;;;;;21.47;54.70;100019.09;5007048;28;20502;-82
2022/09/12 08:32:20;;;;;;;5.25;1.77;;;;;;;20.93;53.81;99884.84;4995984;28;20049;-81
2022/09/12 08:34:45;;;;;;;8.68;1.77;;;;;;;21.70;52.56;100015.22;5008030;28;20041;-79
2022/09/12 08:37:10;;;;;;;2.92;1.13;;;;;;;20.25;52.85;99800.25;5001578;28;20092;-81
2022/09/12 08:39:36;;;;;;;8.65;1.50;;;;;;;21.80;53.30;100011.13;5002820;28;20112;-81
2022/09/12 08:42:04;;;;;;;7.43;3.40;;;;;;;21.11;52.80;99877.69;4986869;28;20098;-78
2022/09/12 08:44:50;;;;;;;4.53;2.55;;;;;;;21.95;53.41;100001.41;4999640;28;20049;-78
2022/09/12 08:47:35;;;;;;;10.43;1.95;;;;;;;21.20;52.02;99879.88;5002842;28;20064;-79
2022/09/12 08:50:07;;;;;;;11.38;1.45;;;;;;;21.86;52.73;99980.53;5004355;28;20056;-77
2022/09/12 08:52:43;;;;;;;10.90;1.90;;;;;;;22.17;51.28;100005.59;5000106;28;20050;-79
2022/09/12 08:55:34;;;;;;;4.72;2.45;;;;;;;23.07;62.88;99997.88;4995286;28;20065;-74
2022/09/12 08:58:09;;;;;;;4.65;2.00;;;;;;;23.18;61.12;99966.00;5000871;28;20054;-73
2022/09/12 09:01:14;;;;;;;5.15;1.92;;;;;;;22.61;50.09;99951.47;4998664;28;20494;-75
2022/09/12 09:04:03;;;;;;;4.38;2.15;;;;;;;22.96;58.34;99992.25;4959780;28;20059;-78
2022/09/12 09:06:49;;;;;;;7.00;1.88;;;;;;;23.31;57.14;99998.22;5003111;28;20050;-73
2022/09/12 09:09:24;;;;;;;3.60;1.85;;;;;;;22.89;52.58;99991.75;4999086;28;20049;-75
2022/09/12 09:12:05;;;;;;;9.48;0.88;;;;;;;23.16;53.10;99986.63;5016591;28;20498;-76
2022/09/12 09:14:56;;;;;;;3.97;1.38;;;;;;;23.04;52.27;99984.69;4999604;28;20049;-77
2022/09/12 09:17:37;;;;;;;95.35;65.82;;;;;;;22.85;53.12;99864.47;5005126;28;20053;-76
2022/09/12 09:20:31;;;;;;;20.05;10.60;;;;;;;22.10;47.87;99869.66;5000084;28;20041;-75
2022/09/12 09:23:16;;;;;;;27.60;19.38;;;;;;;22.47;48.72;99859.53;5003172;28;20577;-79
2022/09/12 09:26:06;;;;;;;27.42;20.15;;;;;;;23.20;50.74;99975.72;5004065;28;20069;-77
2022/09/12 09:28:52;;;;;;;46.13;28.13;;;;;;;23.48;51.95;99970.44;4991109;28;20069;-75
2022/09/12 09:31:29;;;;;;;28.75;7.90;;;;;;;22.71;47.92;99864.41;5003584;28;20042;-74
2022/09/12 09:33:55;;;;;;;15.32;6.20;;;;;;;23.34;51.01;99939.16;4996196;28;20038;-77
2022/09/12 09:36:51;;;;;;;38.03;25.08;;;;;;;23.89;51.16;99964.38;4996713;28;20035;-78
2022/09/12 09:39:33;;;;;;;12.48;8.32;;;;;;;23.56;51.04;99967.31;5003376;28;20050;-78
2022/09/12 09:42:20;;;;;;;4.70;2.58;;;;;;;23.20;46.28;99971.22;5003712;28;20093;-79
2022/09/12 09:44:47;;;;;;;68.80;48.75;;;;;;;23.67;49.81;99964.84;5002446;28;20045;-79
2022/09/12 09:47:14;;;;;;;55.38;40.95;;;;;;;23.25;51.28;99945.06;4986942;28;21033;-76
2022/09/12 09:49:40;;;;;;;59.13;43.28;;;;;;;23.53;46.24;99962.13;4996399;28;20088;-78
2022/09/12 09:52:07;;;;;;;54.17;37.47;;;;;;;23.18;50.11;99860.75;5001640;28;20042;-75
2022/09/12 09:54:38;;;;;;;47.28;37.28;;;;;;;23.74;47.43;99935.84;5001217;28;20129;-77
2022/09/12 09:57:04;;;;;;;56.20;39.83;;;;;;;23.63;49.26;99928.47;5004938;28;20037;-73
2022/09/12 09:59:32;;;;;;;12.48;6.82;;;;;;;23.49;45.09;99941.84;5000543;28;20054;-81
2022/09/12 10:02:13;;;;;;;24.73;11.93;;;;;;;23.83;46.03;99970.13;4998373;28;20098;-74
2022/09/12 10:04:51;;;;;;;43.88;29.40;;;;;;;23.37;48.55;99831.88;5005353;28;20065;-72
2022/09/12 10:07:18;;;;;;;16.02;9.02;;;;;;;23.95;47.89;99963.13;5000191;28;20097;-74
2022/09/12 10:10:18;;;;;;;21.65;13.30;;;;;;;23.37;47.78;99814.94;4994839;28;20040;-72
2022/09/12 10:12:44;;;;;;;13.52;6.57;;;;;;;24.01;45.47;99944.00;4981202;28;20042;-74
2022/09/12 10:15:29;;;;;;;8.57;5.30;;;;;;;24.02;45.34;99959.09;4998586;28;20034;-73
2022/09/12 10:17:55;;;;;;;11.73;6.03;;;;;;;24.14;49.86;99920.81;4984020;28;20438;-73
2022/09/12 10:20:30;;;;;;;1.25;0.40;;;;;;;24.13;43.42;99945.03;5004256;28;20065;-70
2022/09/12 10:22:58;;;;;;;3.63;1.00;;;;;;;23.54;42.59;99819.22;4998661;28;20541;-73
2022/09/12 10:25:24;;;;;;;6.68;2.70;;;;;;;24.43;47.37;99924.28;4998925;28;20050;-68
2022/09/12 10:27:54;;;;;;;20.05;6.18;;;;;;;24.18;49.28;99815.06;5002413;28;20033;-73
2022/09/12 10:30:23;;;;;;;4.35;1.77;;;;;;;25.02;42.13;99944.56;4999317;28;20062;-79
2022/09/12 10:32:49;;;;;;;4.70;2.25;;;;;;;24.48;43.96;99819.41;5002135;28;20054;-77
2022/09/12 10:35:29;;;;;;;8.68;1.92;;;;;;;25.27;43.14;99938.44;4984571;28;20092;-73
2022/09/12 10:38:01;;;;;;;8.00;2.30;;;;;;;25.10;44.52;99826.78;5001789;28;20482;-78
2022/09/12 10:40:38;;;;;;;7.10;2.17;;;;;;;24.87;42.82;99808.75;4982276;28;20121;-71
2022/09/12 10:43:38;;;;;;;10.18;1.90;;;;;;;25.54;41.29;99924.03;5002565;28;20072;-72
2022/09/12 10:46:22;;;;;;;5.18;0.90;;;;;;;24.85;41.07;99926.94;4969657;28;20145;-72
2022/09/12 10:48:50;;;;;;;20.08;2.30;;;;;;;24.78;44.47;99796.81;4999369;28;20156;-70
2022/09/12 10:51:24;;;;;;;2.55;1.05;;;;;;;26.36;43.60;99922.63;5003581;28;20030;-70
2022/09/12 10:54:11;;;;;;;6.20;2.25;;;;;;;26.06;42.31;99888.97;4996931;28;20058;-71
2022/09/12 10:56:58;;;;;;;2.30;1.13;;;;;;;26.40;41.39;99918.75;4996840;28;20520;-71
2022/09/12 10:59:43;;;;;;;1.92;0.80;;;;;;;26.56;39.93;99918.50;4996248;28;20054;-73
2022/09/12 11:02:27;;;;;;;2.85;1.05;;;;;;;25.65;41.51;99910.72;4970183;28;20984;-77
2022/09/12 11:05:11;;;;;;;2.22;0.77;;;;;;;25.77;44.00;99892.84;4960614;28;20046;-77
2022/09/12 11:07:49;;;;;;;5.55;1.30;;;;;;;25.20;44.26;99894.19;4974695;28;20093;-76
2022/09/12 11:10:30;;;;;;;3.85;1.65;;;;;;;25.40;45.63;99912.47;4976671;28;20498;-78
2022/09/12 11:13:34;;;;;;;5.30;2.38;;;;;;;25.24;41.27;99853.56;4978984;28;20045;-73
2022/09/12 11:16:24;;;;;;;4.00;1.20;;;;;;;26.07;44.70;99897.88;5000499;28;20133;-74
2022/09/12 11:19:04;;;;;;;5.72;1.30;;;;;;;25.94;40.28;99903.28;4996549;28;20116;-73
2022/09/12 11:21:59;;;;;;;2.17;0.70;;;;;;;26.13;38.96;99910.00;4995557;28;20429;-76
2022/09/12 11:24:25;;;;;;;2.30;0.80;;;;;;;25.89;39.28;99909.00;5003043;28;20153;-77
2022/09/12 11:27:06;;;;;;;3.60;1.70;;;;;;;24.37;39.75;99744.13;4994582;28;20177;-76
2022/09/12 11:29:47;;;;;;;8.60;1.05;;;;;;;25.09;40.14;99894.00;4998746;28;20058;-78
2022/09/12 11:32:12;;;;;;;1.73;0.70;;;;;;;24.10;42.23;99790.59;5005139;28;20084;-75
2022/09/12 11:34:53;;;;;;;6.28;1.08;;;;;;;24.85;39.77;99876.78;4994897;28;20053;-74
2022/09/12 11:37:34;;;;;;;4.20;1.00;;;;;;;25.28;38.62;99903.41;5001692;28;20832;-71
2022/09/12 11:40:19;;;;;;;2.63;0.93;;;;;;;24.70;38.96;99788.41;5001411;28;20140;-71
2022/09/12 11:42:46;;;;;;;8.88;2.00;;;;;;;25.29;40.98;99882.78;5006616;28;20060;-72
2022/09/12 11:45:17;;;;;;;2.42;0.95;;;;;;;25.42;38.53;99880.94;5004107;28;20485;-71
2022/09/12 11:47:52;;;;;;;3.08;0.95;;;;;;;24.96;38.48;99784.81;4968811;28;20054;-70
2022/09/12 11:50:26;;;;;;;1.95;0.65;;;;;;;25.56;38.65;99877.28;4977598;28;20051;-72